Calistoga, CA

5:08 AM PST on December 20, 2014 (GMT -0800)
Calistoga | Change Station
CLOSE
Current Station
Personal Weather Station
Location: Calistoga, CA
Elevation: 367 ft
Nearby Weather Stations
Active Advisory: Coastal Flood Advisory Active Notice: Public Information Statement

Elev 367 ft 38.59 °N, 122.58 °W | Updated 18 seconds ago

Fog
Fog
51.5 °F
Feels Like 51.5 °F
N
0.0
Wind Variable Wind from South
Gusts 0.0 mph

Today
High -- | Low -- °F
--% Chance of Precip.
Yesterday
High -- | Low -- °F
Precip. -- in
7:23 AM 4:52 PM
Waning Crescent, 3% visible
Pressure 30.12 in
Visibility 1.8 miles
Clouds Overcast 300 ft
Dew Point 51 °F
Humidity 98%
Rainfall 0.13 in
Snow Depth Not available.
UV 0 out of 12
Pollen 2.90 out of 12
Air Quality Not available.
Flu Activity Not available.
METAR KSTS 201253Z AUTO 00000KT 1 3/4SM BR OVC003 12/11 A3013 RMK AO2 CIG 002V005 SLP198 T01170111

More Conditions Fewer Conditions

Pressure 30.12 in
Visibility 1.8 miles
Clouds Overcast 300 ft
Dew Point 51 °F
Humidity 98%
Rainfall 0.13 in
Snow Depth Not available.
UV 0 out of 12
Pollen 2.90 out of 12
Air Quality Not available.
Flu Activity Not available.
METAR KSTS 201253Z AUTO 00000KT 1 3/4SM BR OVC003 12/11 A3013 RMK AO2 CIG 002V005 SLP198 T01170111

More Conditions Fewer Conditions

10-Day Weather Forecast

Almanac

Astronomy

Dec. 20, 2014 Rise Set
Actual Time
Civil Twilight
Nautical Twilight
Astronomical Twilight
Moon
Length of Visible Light
Length of Day
Tomorrow will be .
, % of the Moon is Illuminated

Today's Extremes

State Highs State Lows

Community

WunderPhotos

Upload Photos

1,779,167 photos uploaded!

WunderBlogs® & News

Nearby

Air Quality

  Air Quality AQ Index Pollutant
Not available.

Snow Depth

Station Depth Elevation

Earthquake Activity

City Distance Mag. Time & Date
Minimum magnitude displayed is 2.5.

Coastal Water Temperatures

Place Temperature

Nearby Weather Stations